createdAt,value
2019-06-01T00:01:42.441Z,64.00
2019-06-01T00:04:09.668Z,65.20
2019-06-01T00:06:36.672Z,64.60
2019-06-01T00:09:05.964Z,64.90
2019-06-01T00:11:33.548Z,65.00
2019-06-01T00:14:02.405Z,65.10
2019-06-01T00:16:29.068Z,65.20
2019-06-01T00:18:55.736Z,65.30
2019-06-01T00:21:22.523Z,65.80
2019-06-01T00:23:49.362Z,65.60
2019-06-01T00:26:16.038Z,65.40
2019-06-01T00:28:43.721Z,66.00
2019-06-01T00:31:10.630Z,66.10
2019-06-01T00:33:37.320Z,65.60
2019-06-01T00:36:04.266Z,65.60
2019-06-01T00:38:31.024Z,65.80
2019-06-01T00:40:57.663Z,65.90
2019-06-01T00:43:24.335Z,66.10
2019-06-01T00:45:54.266Z,65.90
2019-06-01T00:48:20.910Z,65.60
2019-06-01T00:50:49.100Z,65.90
2019-06-01T00:53:15.914Z,66.10
2019-06-01T00:55:43.251Z,66.20
2019-06-01T00:58:09.951Z,66.00
2019-06-01T01:00:43.805Z,66.00
2019-06-01T01:03:06.158Z,66.20
2019-06-01T01:05:32.871Z,66.50
2019-06-01T01:07:59.472Z,66.60
2019-06-01T01:10:26.022Z,66.70
2019-06-01T01:13:08.640Z,67.10
2019-06-01T01:15:36.038Z,66.40
2019-06-01T01:18:05.198Z,66.90
2019-06-01T01:20:34.565Z,67.30
2019-06-01T01:23:01.231Z,67.40
2019-06-01T01:25:28.416Z,67.10
2019-06-01T01:27:55.195Z,67.10
2019-06-01T01:30:21.894Z,67.20
2019-06-01T01:32:49.512Z,67.60
2019-06-01T01:35:16.511Z,67.50
2019-06-01T01:37:43.357Z,67.20
2019-06-01T01:40:10.755Z,67.30
2019-06-01T01:42:37.625Z,67.60
2019-06-01T01:45:07.146Z,67.70
2019-06-01T01:47:33.938Z,67.80
2019-06-01T01:50:00.744Z,67.50
2019-06-01T01:52:27.537Z,67.80
2019-06-01T01:54:54.779Z,67.60
2019-06-01T01:57:21.375Z,67.80
2019-06-01T01:59:51.259Z,67.70
2019-06-01T02:02:17.210Z,67.70
2019-06-01T02:04:44.085Z,68.00
2019-06-01T02:07:10.869Z,68.10
2019-06-01T02:09:37.587Z,68.40
2019-06-01T02:12:04.326Z,68.30
2019-06-01T02:14:31.019Z,68.30
2019-06-01T02:16:58.129Z,68.40
2019-06-01T02:19:25.118Z,68.30
2019-06-01T02:21:54.379Z,68.30
2019-06-01T02:24:21.447Z,68.60
2019-06-01T02:26:48.392Z,68.70
2019-06-01T02:29:15.145Z,69.20
2019-06-01T02:31:43.025Z,69.10
2019-06-01T02:34:09.721Z,69.10
2019-06-01T02:36:36.562Z,69.30
2019-06-01T02:39:06.554Z,69.40
2019-06-01T02:41:33.130Z,69.60
2019-06-01T02:44:01.403Z,69.60
2019-06-01T02:46:28.009Z,69.70
2019-06-01T02:48:55.508Z,69.90
2019-06-01T02:51:22.413Z,70.10
2019-06-01T02:53:48.888Z,70.10
2019-06-01T02:56:15.808Z,69.80
2019-06-01T02:58:42.551Z,69.80
2019-06-01T03:01:29.720Z,70.10
2019-06-01T03:03:57.565Z,70.30
2019-06-01T03:06:28.551Z,69.80
2019-06-01T03:08:57.688Z,70.30
2019-06-01T03:11:25.548Z,70.60
2019-06-01T03:13:54.368Z,70.60
2019-06-01T03:16:23.783Z,70.50
2019-06-01T03:18:52.830Z,70.60
2019-06-01T03:21:20.810Z,71.10
2019-06-01T03:23:50.333Z,70.80
2019-06-01T03:26:19.628Z,71.10
2019-06-01T03:28:49.872Z,71.20
2019-06-01T03:31:17.433Z,71.00
2019-06-01T03:33:43.996Z,71.00
2019-06-01T03:36:10.600Z,70.40
2019-06-01T03:38:39.072Z,70.60
2019-06-01T03:41:06.141Z,70.60
2019-06-01T03:43:32.962Z,70.80
2019-06-01T03:46:00.503Z,70.80
2019-06-01T03:48:27.146Z,70.80
2019-06-01T03:50:53.965Z,71.90
2019-06-01T03:53:20.412Z,72.00
2019-06-01T03:55:47.040Z,72.00
2019-06-01T03:58:14.043Z,72.20
2019-06-01T04:00:41.012Z,72.10
2019-06-01T04:03:07.702Z,71.80
2019-06-01T04:05:35.455Z,71.90
2019-06-01T04:08:03.359Z,71.40
2019-06-01T04:10:30.603Z,71.20
2019-06-01T04:12:57.209Z,71.20
2019-06-01T04:15:23.839Z,71.00
2019-06-01T04:17:52.448Z,71.40
2019-06-01T04:20:19.191Z,72.70
2019-06-01T04:22:46.031Z,73.40
2019-06-01T04:25:13.286Z,73.50
2019-06-01T04:27:40.132Z,73.40
2019-06-01T04:30:07.240Z,73.20
2019-06-01T04:32:48.907Z,72.70
2019-06-01T04:35:04.982Z,72.10
2019-06-01T04:37:31.656Z,71.60
2019-06-01T04:39:58.665Z,71.30
2019-06-01T04:42:25.710Z,71.30
2019-06-01T04:44:52.298Z,71.40
2019-06-01T04:47:18.943Z,71.40
2019-06-01T04:49:46.917Z,71.50
2019-06-01T04:52:13.943Z,71.50
2019-06-01T04:54:42.223Z,71.50
2019-06-01T04:57:09.363Z,71.60
2019-06-01T04:59:37.811Z,71.90
2019-06-01T05:02:05.620Z,72.40
2019-06-01T05:04:33.638Z,72.40
2019-06-01T05:07:00.623Z,72.70
2019-06-01T05:09:27.414Z,72.60
2019-06-01T05:11:54.221Z,72.70
2019-06-01T05:14:20.881Z,72.80
2019-06-01T05:16:47.800Z,73.00
2019-06-01T05:19:14.692Z,73.70
2019-06-01T05:21:41.261Z,74.80
2019-06-01T05:24:08.827Z,75.20
2019-06-01T05:26:35.537Z,75.60
2019-06-01T05:29:03.077Z,75.50
2019-06-01T05:31:29.727Z,75.60
2019-06-01T05:33:56.362Z,75.60
2019-06-01T05:36:22.959Z,75.50
2019-06-01T05:38:49.741Z,75.50
2019-06-01T05:41:16.706Z,75.60
2019-06-01T05:43:43.722Z,75.90
2019-06-01T05:46:10.374Z,75.80
2019-06-01T05:48:37.339Z,75.30
2019-06-01T05:51:03.920Z,74.90
2019-06-01T05:53:30.636Z,75.30
2019-06-01T05:55:57.359Z,74.90
2019-06-01T05:58:23.954Z,75.00
2019-06-01T06:00:50.486Z,74.50
2019-06-01T06:03:21.354Z,75.00
2019-06-01T06:05:45.739Z,75.20
2019-06-01T06:08:12.811Z,74.80
2019-06-01T06:10:41.116Z,75.10
2019-06-01T06:13:07.634Z,75.50
2019-06-01T06:15:34.190Z,76.10
2019-06-01T06:18:01.072Z,76.20
2019-06-01T06:20:27.610Z,76.90
2019-06-01T06:22:54.341Z,74.80
2019-06-01T06:25:20.916Z,75.00
2019-06-01T06:27:47.494Z,76.30
2019-06-01T06:30:14.837Z,76.70
2019-06-01T06:32:41.461Z,75.60
2019-06-01T06:35:08.250Z,75.00
2019-06-01T06:37:34.795Z,74.30
2019-06-01T06:40:01.868Z,73.50
2019-06-01T06:42:28.529Z,72.50
2019-06-01T06:44:56.931Z,71.40
2019-06-01T06:47:23.385Z,71.90
2019-06-01T06:49:50.011Z,71.20
2019-06-01T06:52:17.452Z,71.60
2019-06-01T06:54:45.925Z,71.50
2019-06-01T06:57:12.501Z,72.20
2019-06-01T06:59:40.799Z,72.30
2019-06-01T07:02:07.256Z,69.50
2019-06-01T07:04:33.961Z,69.50
2019-06-01T07:07:00.641Z,68.90
2019-06-01T07:09:28.334Z,67.00
2019-06-01T07:11:55.256Z,67.80
2019-06-01T07:14:21.951Z,69.20
2019-06-01T07:16:48.653Z,68.60
2019-06-01T07:19:15.248Z,68.60
2019-06-01T07:21:41.758Z,68.20
2019-06-01T07:24:08.491Z,67.70
2019-06-01T07:26:35.025Z,67.20
2019-06-01T07:29:01.672Z,66.90
2019-06-01T07:31:28.426Z,66.50
2019-06-01T07:33:55.007Z,65.40
2019-06-01T07:36:22.233Z,64.70
2019-06-01T07:38:48.703Z,64.90
2019-06-01T07:41:15.307Z,62.70
2019-06-01T07:43:43.897Z,63.90
2019-06-01T07:46:11.454Z,64.60
2019-06-01T07:48:38.316Z,63.20
2019-06-01T07:51:04.971Z,63.80
2019-06-01T07:53:31.633Z,63.70
2019-06-01T07:55:59.986Z,63.30
2019-06-01T07:58:26.789Z,62.70
2019-06-01T08:00:55.763Z,62.30
2019-06-01T08:03:23.321Z,61.60
2019-06-01T08:05:50.588Z,62.00
2019-06-01T08:08:18.266Z,61.70
2019-06-01T08:10:44.737Z,61.80
2019-06-01T08:13:11.369Z,60.50
2019-06-01T08:15:37.841Z,59.60
2019-06-01T08:18:04.526Z,60.00
2019-06-01T08:20:32.158Z,59.50
2019-06-01T08:22:59.758Z,59.50
2019-06-01T08:25:26.558Z,59.40
2019-06-01T08:27:53.022Z,57.70
2019-06-01T08:30:20.021Z,57.80
2019-06-01T08:32:46.509Z,57.40
2019-06-01T08:35:13.478Z,57.80
2019-06-01T08:37:40.345Z,56.90
2019-06-01T08:40:27.398Z,56.90
2019-06-01T08:43:05.163Z,57.00
2019-06-01T08:45:36.062Z,56.30
2019-06-01T08:48:31.845Z,53.70
2019-06-01T08:51:04.550Z,51.00
2019-06-01T08:53:34.783Z,48.50
2019-06-01T08:56:13.124Z,46.00
2019-06-01T08:58:58.725Z,45.40
2019-06-01T09:01:26.447Z,44.80
2019-06-01T09:03:53.076Z,42.90
2019-06-01T09:06:19.726Z,42.40
2019-06-01T09:08:52.431Z,41.60
2019-06-01T09:11:19.187Z,39.90
2019-06-01T09:13:45.925Z,40.20
2019-06-01T09:16:12.742Z,40.60
2019-06-01T09:18:39.254Z,38.90
2019-06-01T09:21:06.022Z,38.80
2019-06-01T09:23:33.770Z,37.60
2019-06-01T09:26:00.348Z,37.30
2019-06-01T09:28:28.075Z,37.10
2019-06-01T09:30:54.661Z,37.00
2019-06-01T09:33:21.160Z,36.70
2019-06-01T09:35:55.822Z,37.10
2019-06-01T09:38:16.293Z,36.60
2019-06-01T09:40:43.130Z,36.10
2019-06-01T09:43:09.759Z,35.20
2019-06-01T09:45:36.601Z,34.60
2019-06-01T09:48:03.643Z,34.60
2019-06-01T09:50:31.330Z,35.00
2019-06-01T09:52:58.136Z,34.70
2019-06-01T09:55:44.431Z,34.30
2019-06-01T09:58:11.379Z,33.10
2019-06-01T10:00:42.091Z,33.50
2019-06-01T10:03:06.611Z,33.00
2019-06-01T10:05:36.520Z,33.40
2019-06-01T10:08:03.490Z,33.90
2019-06-01T10:10:31.757Z,34.00
2019-06-01T10:12:58.997Z,33.30
2019-06-01T10:15:26.562Z,32.60
2019-06-01T10:17:53.107Z,32.30
2019-06-01T10:20:19.834Z,32.50
2019-06-01T10:22:46.501Z,32.10
2019-06-01T10:25:15.529Z,31.30
2019-06-01T10:27:42.850Z,31.00
2019-06-01T10:30:10.344Z,31.10
2019-06-01T10:32:38.051Z,30.80
2019-06-01T10:35:06.895Z,30.70
2019-06-01T10:37:35.364Z,31.50
2019-06-01T10:40:03.202Z,31.30
2019-06-01T10:42:29.777Z,30.90
2019-06-01T10:44:56.557Z,31.60
2019-06-01T10:47:25.001Z,30.90
2019-06-01T10:49:51.415Z,31.10
2019-06-01T10:52:17.906Z,31.50
2019-06-01T10:54:44.455Z,31.30
2019-06-01T10:57:12.217Z,31.80
2019-06-01T10:59:38.619Z,30.80
2019-06-01T11:02:06.319Z,30.90
2019-06-01T11:04:32.811Z,31.00
2019-06-01T11:06:59.260Z,31.60
2019-06-01T11:09:25.817Z,31.00
2019-06-01T11:11:52.334Z,31.50
2019-06-01T11:14:19.013Z,30.90
2019-06-01T11:16:45.462Z,30.40
2019-06-01T11:19:11.880Z,30.00
2019-06-01T11:21:39.497Z,30.30
2019-06-01T11:24:06.402Z,30.60
2019-06-01T11:26:33.349Z,32.10
2019-06-01T11:29:00.148Z,32.30
2019-06-01T11:31:26.720Z,32.90
2019-06-01T11:33:53.335Z,33.10
2019-06-01T11:36:19.914Z,33.80
2019-06-01T11:38:46.414Z,35.20
2019-06-01T11:41:12.902Z,36.10
2019-06-01T11:43:40.551Z,36.70
2019-06-01T11:46:07.320Z,36.90
2019-06-01T11:48:35.153Z,37.20
2019-06-01T11:51:01.715Z,37.00
2019-06-01T11:53:28.321Z,37.10
2019-06-01T11:55:55.295Z,36.90
2019-06-01T11:58:22.040Z,37.10
2019-06-01T12:00:48.781Z,37.10
2019-06-01T12:03:15.565Z,37.10
2019-06-01T12:05:42.219Z,37.70
2019-06-01T12:08:09.209Z,37.40
2019-06-01T12:10:36.653Z,38.40
2019-06-01T12:13:03.791Z,37.40
2019-06-01T12:15:30.353Z,38.30
2019-06-01T12:17:56.920Z,38.80
2019-06-01T12:20:23.581Z,38.40
2019-06-01T12:22:50.467Z,38.50
2019-06-01T12:25:17.355Z,38.30
2019-06-01T12:27:43.872Z,39.00
2019-06-01T12:30:11.029Z,39.20
2019-06-01T12:32:38.003Z,38.70
2019-06-01T12:35:06.603Z,37.50
2019-06-01T12:37:55.015Z,37.60
2019-06-01T12:40:08.148Z,37.80
2019-06-01T12:42:34.537Z,37.30
2019-06-01T12:45:01.034Z,37.50
2019-06-01T12:47:27.440Z,38.70
2019-06-01T12:49:54.041Z,38.30
2019-06-01T12:52:20.571Z,38.60
2019-06-01T12:54:46.878Z,38.00
2019-06-01T12:57:13.518Z,37.30
2019-06-01T12:59:41.100Z,38.90
2019-06-01T13:02:08.056Z,38.20
2019-06-01T13:04:34.654Z,38.80
2019-06-01T13:07:01.089Z,38.70
2019-06-01T13:09:28.032Z,39.40
2019-06-01T13:11:54.420Z,38.60
2019-06-01T13:14:21.106Z,38.00
2019-06-01T13:16:58.664Z,38.10
2019-06-01T13:19:16.219Z,38.00
2019-06-01T13:21:43.306Z,38.00
2019-06-01T13:24:09.953Z,38.90
2019-06-01T13:26:36.457Z,39.20
2019-06-01T13:29:03.540Z,39.70
2019-06-01T13:31:29.951Z,39.10
2019-06-01T13:33:56.474Z,38.90
2019-06-01T13:36:23.119Z,38.90
2019-06-01T13:38:50.814Z,39.20
2019-06-01T13:41:17.497Z,39.80
2019-06-01T13:43:45.186Z,39.40
2019-06-01T13:46:13.737Z,39.60
2019-06-01T13:48:40.231Z,39.00
2019-06-01T13:51:06.736Z,39.30
2019-06-01T13:53:33.513Z,39.10
2019-06-01T13:55:59.930Z,39.40
2019-06-01T13:58:26.818Z,38.70
2019-06-01T14:00:53.282Z,38.80
2019-06-01T14:03:20.027Z,38.60
2019-06-01T14:05:46.812Z,38.80
2019-06-01T14:08:28.000Z,38.40
2019-06-01T14:10:42.041Z,38.30
2019-06-01T14:13:08.831Z,38.50
2019-06-01T14:15:35.262Z,39.30
2019-06-01T14:18:01.801Z,39.20
2019-06-01T14:20:29.846Z,39.20
2019-06-01T14:22:56.323Z,39.60
2019-06-01T14:25:22.802Z,39.40
2019-06-01T14:27:50.537Z,39.60
2019-06-01T14:30:17.346Z,39.20
2019-06-01T14:32:43.858Z,39.80
2019-06-01T14:35:10.774Z,39.60
2019-06-01T14:37:39.084Z,39.00
2019-06-01T14:40:06.132Z,39.00
2019-06-01T14:42:32.829Z,38.70
2019-06-01T14:44:59.822Z,39.40
2019-06-01T14:47:26.371Z,38.90
2019-06-01T14:49:53.565Z,39.70
2019-06-01T14:52:20.363Z,39.40
2019-06-01T14:54:47.638Z,39.90
2019-06-01T14:57:14.455Z,39.90
2019-06-01T14:59:40.960Z,39.30
2019-06-01T15:02:07.399Z,39.00
2019-06-01T15:04:33.965Z,39.00
2019-06-01T15:07:00.606Z,39.10
2019-06-01T15:09:28.253Z,39.70
2019-06-01T15:11:54.883Z,39.00
2019-06-01T15:14:21.530Z,39.00
2019-06-01T15:16:49.455Z,39.20
2019-06-01T15:19:16.150Z,39.30
2019-06-01T15:21:42.682Z,39.20
2019-06-01T15:24:09.077Z,39.50
2019-06-01T15:26:35.511Z,39.10
2019-06-01T15:29:03.152Z,39.20
2019-06-01T15:31:29.596Z,39.80
2019-06-01T15:33:57.291Z,39.80
2019-06-01T15:36:23.903Z,39.60
2019-06-01T15:38:51.578Z,39.50
2019-06-01T15:41:18.299Z,39.30
2019-06-01T15:43:44.745Z,39.60
2019-06-01T15:46:11.605Z,40.40
2019-06-01T15:48:38.156Z,40.00
2019-06-01T15:51:07.215Z,40.20
2019-06-01T15:53:33.240Z,39.60
2019-06-01T15:56:01.001Z,39.40
2019-06-01T15:58:27.681Z,39.80
2019-06-01T16:00:54.979Z,39.70
2019-06-01T16:03:21.759Z,39.30
2019-06-01T16:05:48.724Z,39.60
2019-06-01T16:08:15.425Z,40.20
2019-06-01T16:10:42.097Z,39.80
2019-06-01T16:13:08.852Z,39.80
2019-06-01T16:15:35.670Z,39.90
2019-06-01T16:18:02.167Z,39.60
2019-06-01T16:20:30.108Z,40.00
2019-06-01T16:22:56.651Z,39.40
2019-06-01T16:25:23.466Z,39.10
2019-06-01T16:27:50.113Z,39.80
2019-06-01T16:30:16.842Z,39.70
2019-06-01T16:32:43.476Z,39.90
2019-06-01T16:35:11.909Z,40.30
2019-06-01T16:37:38.608Z,40.10
2019-06-01T16:40:09.862Z,40.60
2019-06-01T16:42:35.257Z,40.50
2019-06-01T16:45:05.649Z,40.30
2019-06-01T16:47:32.729Z,40.00
2019-06-01T16:50:01.797Z,40.10
2019-06-01T16:52:28.380Z,40.40
2019-06-01T16:54:58.121Z,40.30
2019-06-01T16:57:24.826Z,40.40
2019-06-01T16:59:51.275Z,40.50
2019-06-01T17:02:17.837Z,40.80
2019-06-01T17:04:44.529Z,40.80
2019-06-01T17:07:11.359Z,40.80
2019-06-01T17:09:37.998Z,41.20
2019-06-01T17:12:05.242Z,41.50
2019-06-01T17:14:33.698Z,41.90
2019-06-01T17:17:01.077Z,41.50
2019-06-01T17:19:27.519Z,41.80
2019-06-01T17:21:54.163Z,42.10
2019-06-01T17:24:20.839Z,41.80
2019-06-01T17:26:47.395Z,42.20
2019-06-01T17:29:13.966Z,41.80
2019-06-01T17:31:53.586Z,41.70
2019-06-01T17:34:09.062Z,42.10
2019-06-01T17:36:35.634Z,41.90
2019-06-01T17:39:06.043Z,41.60
2019-06-01T17:41:32.699Z,41.60
2019-06-01T17:43:59.002Z,42.20
2019-06-01T17:46:25.390Z,41.80
2019-06-01T17:48:52.070Z,41.80
2019-06-01T17:51:18.887Z,41.80
2019-06-01T17:53:45.621Z,42.10
2019-06-01T17:56:12.326Z,42.10
2019-06-01T17:58:38.905Z,42.20
2019-06-01T18:01:06.374Z,42.20
2019-06-01T18:03:33.229Z,42.20
2019-06-01T18:05:59.863Z,42.10
2019-06-01T18:08:26.426Z,41.80
2019-06-01T18:10:55.044Z,41.80
2019-06-01T18:13:22.890Z,42.00
2019-06-01T18:15:50.279Z,42.10
2019-06-01T18:18:16.965Z,42.30
2019-06-01T18:20:43.449Z,42.70
2019-06-01T18:23:11.398Z,42.00
2019-06-01T18:25:39.130Z,42.40
2019-06-01T18:28:06.988Z,42.60
2019-06-01T18:30:33.657Z,42.60
2019-06-01T18:33:00.077Z,42.60
2019-06-01T18:35:26.765Z,42.60
2019-06-01T18:37:53.450Z,42.50
2019-06-01T18:40:22.726Z,42.40
2019-06-01T18:42:54.429Z,42.50
2019-06-01T18:45:21.246Z,42.00
2019-06-01T18:47:48.499Z,42.50
2019-06-01T18:50:17.413Z,42.60
2019-06-01T18:52:44.040Z,42.90
2019-06-01T18:55:12.541Z,43.30
2019-06-01T18:57:42.101Z,43.60
2019-06-01T19:00:12.278Z,44.50
2019-06-01T19:02:39.896Z,45.70
2019-06-01T19:05:06.997Z,45.40
2019-06-01T19:07:33.592Z,45.00
2019-06-01T19:09:59.932Z,46.10
2019-06-01T19:12:26.356Z,44.40
2019-06-01T19:14:55.333Z,45.60
2019-06-01T19:17:21.775Z,45.50
2019-06-01T19:19:48.113Z,46.30
2019-06-01T19:22:14.634Z,47.10
2019-06-01T19:24:41.302Z,47.10
2019-06-01T19:27:10.675Z,47.00
2019-06-01T19:29:37.306Z,46.80
2019-06-01T19:32:04.032Z,47.00
2019-06-01T19:34:30.599Z,47.50
2019-06-01T19:36:59.234Z,47.00
2019-06-01T19:39:26.592Z,47.20
2019-06-01T19:41:53.003Z,47.30
2019-06-01T19:44:19.291Z,47.30
2019-06-01T19:46:45.807Z,48.80
2019-06-01T19:49:13.278Z,49.50
2019-06-01T19:51:40.458Z,50.00
2019-06-01T19:54:06.862Z,50.60
2019-06-01T19:56:34.392Z,51.60
2019-06-01T19:59:00.663Z,51.20
2019-06-01T20:01:26.971Z,52.00
2019-06-01T20:03:53.276Z,52.40
2019-06-01T20:06:19.553Z,53.30
2019-06-01T20:08:45.875Z,53.10
2019-06-01T20:11:13.148Z,52.40
2019-06-01T20:13:39.894Z,52.90
2019-06-01T20:16:06.461Z,53.20
2019-06-01T20:18:32.947Z,54.60
2019-06-01T20:20:59.540Z,53.10
2019-06-01T20:23:26.166Z,53.10
2019-06-01T20:25:52.799Z,53.60
2019-06-01T20:28:19.654Z,54.00
2019-06-01T20:30:46.183Z,54.30
2019-06-01T20:33:14.079Z,54.90
2019-06-01T20:35:40.685Z,54.70
2019-06-01T20:38:07.022Z,55.70
2019-06-01T20:40:33.463Z,55.20
2019-06-01T20:42:59.925Z,55.00
2019-06-01T20:45:26.377Z,54.00
2019-06-01T20:47:52.937Z,54.20
2019-06-01T20:50:20.729Z,55.00
2019-06-01T20:52:47.307Z,55.00
2019-06-01T20:55:16.744Z,54.70
2019-06-01T20:57:43.478Z,55.00
2019-06-01T21:00:13.543Z,54.80
2019-06-01T21:02:40.399Z,54.90
2019-06-01T21:05:07.230Z,55.10
2019-06-01T21:07:33.971Z,55.40
2019-06-01T21:10:00.508Z,54.50
2019-06-01T21:12:44.326Z,55.20
2019-06-01T21:14:55.149Z,55.00
2019-06-01T21:17:22.700Z,55.10
2019-06-01T21:19:49.432Z,55.50
2019-06-01T21:22:16.462Z,55.20
2019-06-01T21:24:43.228Z,55.50
2019-06-01T21:27:09.722Z,55.20
2019-06-01T21:29:36.206Z,55.20
2019-06-01T21:32:04.405Z,55.10
2019-06-01T21:34:30.842Z,55.30
2019-06-01T21:36:57.401Z,55.60
2019-06-01T21:39:24.043Z,55.60
2019-06-01T21:41:50.813Z,55.70
2019-06-01T21:44:17.507Z,56.00
2019-06-01T21:46:45.166Z,56.20
2019-06-01T21:49:11.639Z,56.60
2019-06-01T21:51:38.223Z,56.80
2019-06-01T21:54:04.654Z,56.40
2019-06-01T21:56:32.437Z,56.00
2019-06-01T21:58:59.036Z,56.20
2019-06-01T22:01:26.887Z,56.10
2019-06-01T22:03:53.583Z,55.90
2019-06-01T22:06:21.602Z,56.00
2019-06-01T22:08:52.571Z,56.10
2019-06-01T22:11:17.331Z,56.00
2019-06-01T22:13:43.890Z,56.10
2019-06-01T22:16:10.483Z,56.40
2019-06-01T22:18:37.320Z,56.90
2019-06-01T22:21:03.818Z,57.00
2019-06-01T22:23:30.319Z,57.20
2019-06-01T22:25:56.853Z,57.30
2019-06-01T22:28:24.507Z,57.50
2019-06-01T22:30:51.353Z,57.60
2019-06-01T22:33:20.070Z,57.80
2019-06-01T22:35:46.373Z,57.70
2019-06-01T22:38:12.715Z,57.70
2019-06-01T22:40:39.218Z,57.50
2019-06-01T22:43:06.061Z,57.70
2019-06-01T22:45:33.472Z,57.80
2019-06-01T22:48:00.028Z,58.00
2019-06-01T22:50:27.060Z,58.30
2019-06-01T22:52:53.660Z,58.10
2019-06-01T22:55:20.172Z,57.90
2019-06-01T22:57:46.567Z,58.20
2019-06-01T23:00:13.918Z,58.20
2019-06-01T23:02:40.412Z,58.20
2019-06-01T23:05:07.165Z,58.80
2019-06-01T23:07:33.801Z,59.00
2019-06-01T23:10:00.645Z,59.10
2019-06-01T23:12:27.571Z,59.80
2019-06-01T23:14:54.182Z,60.30
2019-06-01T23:17:21.529Z,61.00
2019-06-01T23:19:48.244Z,61.40
2019-06-01T23:22:14.626Z,61.40
2019-06-01T23:24:41.259Z,61.30
2019-06-01T23:27:07.775Z,61.40
2019-06-01T23:29:34.164Z,60.30
2019-06-01T23:32:00.737Z,60.60
2019-06-01T23:34:28.576Z,60.30
2019-06-01T23:36:55.365Z,60.80
2019-06-01T23:39:22.713Z,61.10
2019-06-01T23:41:49.167Z,61.40
2019-06-01T23:44:15.741Z,61.50
2019-06-01T23:46:42.340Z,61.80
2019-06-01T23:49:10.072Z,62.60
2019-06-01T23:51:36.712Z,64.10
2019-06-01T23:54:03.393Z,63.70
2019-06-01T23:56:31.959Z,63.70
2019-06-01T23:58:58.744Z,63.40
